sensor_id;sensor_type;location;lat;lon;timestamp;P1;durP1;ratioP1;P2;durP2;ratioP2
48823;SDS011;34640;53.590;10.054;2023-01-29T00:01:14;32.50;;;15.52;;
48823;SDS011;34640;53.590;10.054;2023-01-29T00:03:50;30.58;;;15.73;;
48823;SDS011;34640;53.590;10.054;2023-01-29T00:06:24;27.63;;;14.85;;
48823;SDS011;34640;53.590;10.054;2023-01-29T00:08:58;34.15;;;15.57;;
48823;SDS011;34640;53.590;10.054;2023-01-29T00:11:31;30.10;;;15.48;;
48823;SDS011;34640;53.590;10.054;2023-01-29T00:14:06;29.70;;;14.90;;
48823;SDS011;34640;53.590;10.054;2023-01-29T00:16:39;30.55;;;14.73;;
48823;SDS011;34640;53.590;10.054;2023-01-29T00:19:15;33.40;;;15.50;;
48823;SDS011;34640;53.590;10.054;2023-01-29T00:21:49;31.92;;;15.25;;
48823;SDS011;34640;53.590;10.054;2023-01-29T00:24:22;33.30;;;15.98;;
48823;SDS011;34640;53.590;10.054;2023-01-29T00:26:56;35.00;;;15.27;;
48823;SDS011;34640;53.590;10.054;2023-01-29T00:29:30;33.75;;;16.60;;
48823;SDS011;34640;53.590;10.054;2023-01-29T00:32:04;31.27;;;14.57;;
48823;SDS011;34640;53.590;10.054;2023-01-29T00:34:39;28.40;;;15.38;;
48823;SDS011;34640;53.590;10.054;2023-01-29T00:37:12;31.60;;;15.15;;
48823;SDS011;34640;53.590;10.054;2023-01-29T00:39:46;32.53;;;15.25;;
48823;SDS011;34640;53.590;10.054;2023-01-29T00:42:20;31.88;;;15.75;;
48823;SDS011;34640;53.590;10.054;2023-01-29T00:45:12;32.55;;;15.55;;
48823;SDS011;34640;53.590;10.054;2023-01-29T00:47:46;37.00;;;15.68;;
48823;SDS011;34640;53.590;10.054;2023-01-29T00:50:21;30.02;;;15.45;;
48823;SDS011;34640;53.590;10.054;2023-01-29T00:52:54;33.38;;;15.13;;
48823;SDS011;34640;53.590;10.054;2023-01-29T00:55:28;29.88;;;14.90;;
48823;SDS011;34640;53.590;10.054;2023-01-29T00:58:02;30.48;;;14.13;;
48823;SDS011;34640;53.590;10.054;2023-01-29T01:00:36;29.60;;;14.25;;
48823;SDS011;34640;53.590;10.054;2023-01-29T01:03:09;29.17;;;14.77;;
48823;SDS011;34640;53.590;10.054;2023-01-29T01:05:43;34.97;;;13.55;;
48823;SDS011;34640;53.590;10.054;2023-01-29T01:08:17;27.13;;;13.65;;
48823;SDS011;34640;53.590;10.054;2023-01-29T01:11:08;26.30;;;13.13;;
48823;SDS011;34640;53.590;10.054;2023-01-29T01:13:42;24.45;;;12.20;;
48823;SDS011;34640;53.590;10.054;2023-01-29T01:16:16;26.25;;;13.23;;
48823;SDS011;34640;53.590;10.054;2023-01-29T01:18:51;29.10;;;13.80;;
48823;SDS011;34640;53.590;10.054;2023-01-29T01:21:27;27.70;;;13.50;;
48823;SDS011;34640;53.590;10.054;2023-01-29T01:24:00;26.65;;;13.10;;
48823;SDS011;34640;53.590;10.054;2023-01-29T01:26:37;31.23;;;13.27;;
48823;SDS011;34640;53.590;10.054;2023-01-29T01:29:10;29.38;;;13.63;;
48823;SDS011;34640;53.590;10.054;2023-01-29T01:31:44;28.90;;;13.73;;
48823;SDS011;34640;53.590;10.054;2023-01-29T01:34:18;24.75;;;12.82;;
48823;SDS011;34640;53.590;10.054;2023-01-29T01:36:54;26.83;;;13.15;;
48823;SDS011;34640;53.590;10.054;2023-01-29T01:39:28;23.35;;;11.23;;
48823;SDS011;34640;53.590;10.054;2023-01-29T01:42:02;27.42;;;12.63;;
48823;SDS011;34640;53.590;10.054;2023-01-29T01:44:55;27.98;;;11.73;;
48823;SDS011;34640;53.590;10.054;2023-01-29T01:47:33;25.65;;;12.30;;
48823;SDS011;34640;53.590;10.054;2023-01-29T01:50:11;27.77;;;12.68;;
48823;SDS011;34640;53.590;10.054;2023-01-29T01:52:51;31.57;;;12.43;;
48823;SDS011;34640;53.590;10.054;2023-01-29T01:55:28;28.15;;;13.10;;
48823;SDS011;34640;53.590;10.054;2023-01-29T01:58:06;28.00;;;13.13;;
48823;SDS011;34640;53.590;10.054;2023-01-29T02:00:44;33.58;;;13.18;;
48823;SDS011;34640;53.590;10.054;2023-01-29T02:03:18;27.10;;;12.70;;
48823;SDS011;34640;53.590;10.054;2023-01-29T02:06:12;22.35;;;11.77;;
48823;SDS011;34640;53.590;10.054;2023-01-29T02:09:05;28.58;;;12.98;;
48823;SDS011;34640;53.590;10.054;2023-01-29T02:12:05;27.52;;;12.05;;
48823;SDS011;34640;53.590;10.054;2023-01-29T02:14:41;26.50;;;12.65;;
48823;SDS011;34640;53.590;10.054;2023-01-29T02:17:16;30.42;;;13.38;;
48823;SDS011;34640;53.590;10.054;2023-01-29T02:19:53;26.05;;;12.35;;
48823;SDS011;34640;53.590;10.054;2023-01-29T02:22:40;23.90;;;12.52;;
48823;SDS011;34640;53.590;10.054;2023-01-29T02:28:42;24.05;;;11.70;;
48823;SDS011;34640;53.590;10.054;2023-01-29T02:31:23;24.70;;;12.40;;
48823;SDS011;34640;53.590;10.054;2023-01-29T02:34:05;26.15;;;12.55;;
48823;SDS011;34640;53.590;10.054;2023-01-29T02:36:45;27.00;;;13.38;;
48823;SDS011;34640;53.590;10.054;2023-01-29T02:39:24;25.08;;;11.70;;
48823;SDS011;34640;53.590;10.054;2023-01-29T02:42:06;26.75;;;12.18;;
48823;SDS011;34640;53.590;10.054;2023-01-29T02:44:50;23.33;;;12.52;;
48823;SDS011;34640;53.590;10.054;2023-01-29T02:47:31;27.05;;;12.35;;
48823;SDS011;34640;53.590;10.054;2023-01-29T02:50:12;25.27;;;12.68;;
48823;SDS011;34640;53.590;10.054;2023-01-29T02:52:53;24.40;;;12.18;;
48823;SDS011;34640;53.590;10.054;2023-01-29T02:55:35;26.88;;;13.00;;
48823;SDS011;34640;53.590;10.054;2023-01-29T02:58:16;29.88;;;13.25;;
48823;SDS011;34640;53.590;10.054;2023-01-29T03:00:55;24.92;;;12.95;;
48823;SDS011;34640;53.590;10.054;2023-01-29T03:03:35;27.88;;;12.98;;
48823;SDS011;34640;53.590;10.054;2023-01-29T03:06:14;24.35;;;12.88;;
48823;SDS011;34640;53.590;10.054;2023-01-29T03:08:54;30.00;;;13.18;;
48823;SDS011;34640;53.590;10.054;2023-01-29T03:11:33;31.75;;;13.02;;
48823;SDS011;34640;53.590;10.054;2023-01-29T03:14:10;25.20;;;12.65;;
48823;SDS011;34640;53.590;10.054;2023-01-29T03:16:49;26.70;;;12.32;;
48823;SDS011;34640;53.590;10.054;2023-01-29T03:19:26;26.88;;;13.07;;
48823;SDS011;34640;53.590;10.054;2023-01-29T03:22:05;23.95;;;11.95;;
48823;SDS011;34640;53.590;10.054;2023-01-29T03:24:43;25.15;;;11.65;;
48823;SDS011;34640;53.590;10.054;2023-01-29T03:27:37;25.60;;;12.27;;
48823;SDS011;34640;53.590;10.054;2023-01-29T03:30:34;28.13;;;11.55;;
48823;SDS011;34640;53.590;10.054;2023-01-29T03:33:34;29.67;;;12.50;;
48823;SDS011;34640;53.590;10.054;2023-01-29T03:36:15;27.83;;;12.23;;
48823;SDS011;34640;53.590;10.054;2023-01-29T03:38:52;25.42;;;10.95;;
48823;SDS011;34640;53.590;10.054;2023-01-29T03:41:27;32.60;;;11.15;;
48823;SDS011;34640;53.590;10.054;2023-01-29T03:44:09;27.33;;;12.50;;
48823;SDS011;34640;53.590;10.054;2023-01-29T03:46:49;26.02;;;11.35;;
48823;SDS011;34640;53.590;10.054;2023-01-29T03:49:31;25.80;;;11.77;;
48823;SDS011;34640;53.590;10.054;2023-01-29T03:52:18;25.38;;;11.85;;
48823;SDS011;34640;53.590;10.054;2023-01-29T03:54:57;22.13;;;11.18;;
48823;SDS011;34640;53.590;10.054;2023-01-29T03:57:38;25.40;;;12.38;;
48823;SDS011;34640;53.590;10.054;2023-01-29T04:00:17;22.60;;;10.60;;
48823;SDS011;34640;53.590;10.054;2023-01-29T04:02:59;24.95;;;11.35;;
48823;SDS011;34640;53.590;10.054;2023-01-29T04:05:41;21.92;;;11.43;;
48823;SDS011;34640;53.590;10.054;2023-01-29T04:08:20;22.08;;;10.77;;
48823;SDS011;34640;53.590;10.054;2023-01-29T04:10:59;19.42;;;10.52;;
48823;SDS011;34640;53.590;10.054;2023-01-29T04:13:38;17.42;;;9.73;;
48823;SDS011;34640;53.590;10.054;2023-01-29T04:16:14;24.77;;;11.48;;
48823;SDS011;34640;53.590;10.054;2023-01-29T04:18:50;20.50;;;10.88;;
48823;SDS011;34640;53.590;10.054;2023-01-29T04:21:27;25.80;;;12.60;;
48823;SDS011;34640;53.590;10.054;2023-01-29T04:24:03;20.58;;;10.45;;
48823;SDS011;34640;53.590;10.054;2023-01-29T04:26:45;20.83;;;10.60;;
48823;SDS011;34640;53.590;10.054;2023-01-29T04:29:34;18.35;;;9.93;;
48823;SDS011;34640;53.590;10.054;2023-01-29T04:32:17;19.20;;;9.67;;
48823;SDS011;34640;53.590;10.054;2023-01-29T04:34:59;23.38;;;11.18;;
48823;SDS011;34640;53.590;10.054;2023-01-29T04:37:43;23.55;;;10.95;;
48823;SDS011;34640;53.590;10.054;2023-01-29T04:40:28;24.45;;;11.45;;
48823;SDS011;34640;53.590;10.054;2023-01-29T04:43:12;24.92;;;11.20;;
48823;SDS011;34640;53.590;10.054;2023-01-29T04:45:56;20.92;;;10.73;;
48823;SDS011;34640;53.590;10.054;2023-01-29T04:48:52;20.13;;;10.52;;
48823;SDS011;34640;53.590;10.054;2023-01-29T04:51:34;22.27;;;11.43;;
48823;SDS011;34640;53.590;10.054;2023-01-29T04:54:18;24.67;;;11.85;;
48823;SDS011;34640;53.590;10.054;2023-01-29T04:57:01;25.90;;;11.95;;
48823;SDS011;34640;53.590;10.054;2023-01-29T04:59:41;23.63;;;11.23;;
48823;SDS011;34640;53.590;10.054;2023-01-29T05:02:20;20.67;;;11.65;;
48823;SDS011;34640;53.590;10.054;2023-01-29T05:04:56;25.33;;;11.70;;
48823;SDS011;34640;53.590;10.054;2023-01-29T05:07:31;20.90;;;11.75;;
48823;SDS011;34640;53.590;10.054;2023-01-29T05:10:10;24.70;;;13.10;;
48823;SDS011;34640;53.590;10.054;2023-01-29T05:12:48;27.17;;;11.93;;
48823;SDS011;34640;53.590;10.054;2023-01-29T05:15:28;25.25;;;12.43;;
48823;SDS011;34640;53.590;10.054;2023-01-29T05:18:06;23.02;;;12.27;;
48823;SDS011;34640;53.590;10.054;2023-01-29T05:20:41;24.05;;;11.85;;
48823;SDS011;34640;53.590;10.054;2023-01-29T05:23:17;25.85;;;12.25;;
48823;SDS011;34640;53.590;10.054;2023-01-29T05:25:53;27.38;;;12.68;;
48823;SDS011;34640;53.590;10.054;2023-01-29T05:28:29;26.48;;;12.93;;
48823;SDS011;34640;53.590;10.054;2023-01-29T05:31:01;25.60;;;11.93;;
48823;SDS011;34640;53.590;10.054;2023-01-29T05:33:35;25.70;;;12.13;;
48823;SDS011;34640;53.590;10.054;2023-01-29T05:36:09;22.77;;;12.55;;
48823;SDS011;34640;53.590;10.054;2023-01-29T05:38:43;24.48;;;12.30;;
48823;SDS011;34640;53.590;10.054;2023-01-29T05:41:17;26.50;;;12.85;;
48823;SDS011;34640;53.590;10.054;2023-01-29T05:43:52;28.15;;;13.75;;
48823;SDS011;34640;53.590;10.054;2023-01-29T05:46:26;30.85;;;14.25;;
48823;SDS011;34640;53.590;10.054;2023-01-29T05:48:59;29.05;;;13.50;;
48823;SDS011;34640;53.590;10.054;2023-01-29T05:51:34;27.80;;;13.32;;
48823;SDS011;34640;53.590;10.054;2023-01-29T05:54:09;29.85;;;12.98;;
48823;SDS011;34640;53.590;10.054;2023-01-29T05:56:45;30.02;;;13.95;;
48823;SDS011;34640;53.590;10.054;2023-01-29T05:59:18;27.63;;;13.73;;
48823;SDS011;34640;53.590;10.054;2023-01-29T06:01:52;28.70;;;14.18;;
48823;SDS011;34640;53.590;10.054;2023-01-29T06:04:26;29.77;;;13.65;;
48823;SDS011;34640;53.590;10.054;2023-01-29T06:07:00;32.22;;;14.68;;
48823;SDS011;34640;53.590;10.054;2023-01-29T06:09:34;28.23;;;14.50;;
48823;SDS011;34640;53.590;10.054;2023-01-29T06:12:09;32.08;;;14.73;;
48823;SDS011;34640;53.590;10.054;2023-01-29T06:14:44;36.42;;;15.82;;
48823;SDS011;34640;53.590;10.054;2023-01-29T06:17:18;32.42;;;15.35;;
48823;SDS011;34640;53.590;10.054;2023-01-29T06:19:51;31.08;;;15.73;;
48823;SDS011;34640;53.590;10.054;2023-01-29T06:22:25;31.45;;;14.00;;
48823;SDS011;34640;53.590;10.054;2023-01-29T06:24:59;31.25;;;15.88;;
48823;SDS011;34640;53.590;10.054;2023-01-29T06:27:34;30.52;;;14.30;;
48823;SDS011;34640;53.590;10.054;2023-01-29T06:30:08;31.25;;;13.80;;
48823;SDS011;34640;53.590;10.054;2023-01-29T06:32:43;30.00;;;15.02;;
48823;SDS011;34640;53.590;10.054;2023-01-29T06:35:17;29.05;;;15.15;;
48823;SDS011;34640;53.590;10.054;2023-01-29T06:37:50;31.88;;;14.93;;
48823;SDS011;34640;53.590;10.054;2023-01-29T06:40:24;30.33;;;14.13;;
48823;SDS011;34640;53.590;10.054;2023-01-29T06:43:00;30.10;;;14.82;;
48823;SDS011;34640;53.590;10.054;2023-01-29T06:45:33;32.70;;;15.60;;
48823;SDS011;34640;53.590;10.054;2023-01-29T06:48:07;33.55;;;15.35;;
48823;SDS011;34640;53.590;10.054;2023-01-29T06:50:41;28.50;;;13.63;;
48823;SDS011;34640;53.590;10.054;2023-01-29T06:53:15;26.45;;;13.05;;
48823;SDS011;34640;53.590;10.054;2023-01-29T06:55:52;28.83;;;13.52;;
48823;SDS011;34640;53.590;10.054;2023-01-29T06:58:27;28.95;;;13.07;;
48823;SDS011;34640;53.590;10.054;2023-01-29T07:01:02;31.95;;;13.57;;
48823;SDS011;34640;53.590;10.054;2023-01-29T07:03:36;26.48;;;13.15;;
48823;SDS011;34640;53.590;10.054;2023-01-29T07:06:12;27.95;;;13.25;;
48823;SDS011;34640;53.590;10.054;2023-01-29T07:08:46;27.60;;;12.82;;
48823;SDS011;34640;53.590;10.054;2023-01-29T07:11:21;28.33;;;13.65;;
48823;SDS011;34640;53.590;10.054;2023-01-29T07:13:56;27.88;;;13.30;;
48823;SDS011;34640;53.590;10.054;2023-01-29T07:16:29;27.40;;;13.18;;
48823;SDS011;34640;53.590;10.054;2023-01-29T07:19:03;29.23;;;12.80;;
48823;SDS011;34640;53.590;10.054;2023-01-29T07:21:37;25.23;;;13.48;;
48823;SDS011;34640;53.590;10.054;2023-01-29T07:24:11;26.83;;;13.40;;
48823;SDS011;34640;53.590;10.054;2023-01-29T07:26:45;25.98;;;13.23;;
48823;SDS011;34640;53.590;10.054;2023-01-29T07:29:20;26.75;;;12.95;;
48823;SDS011;34640;53.590;10.054;2023-01-29T07:31:53;26.35;;;13.48;;
48823;SDS011;34640;53.590;10.054;2023-01-29T07:34:27;32.88;;;14.30;;
48823;SDS011;34640;53.590;10.054;2023-01-29T07:37:01;24.40;;;12.98;;
48823;SDS011;34640;53.590;10.054;2023-01-29T07:39:35;24.83;;;13.40;;
48823;SDS011;34640;53.590;10.054;2023-01-29T07:42:09;25.95;;;13.40;;
48823;SDS011;34640;53.590;10.054;2023-01-29T07:44:44;28.25;;;14.73;;
48823;SDS011;34640;53.590;10.054;2023-01-29T07:47:17;30.40;;;15.57;;
48823;SDS011;34640;53.590;10.054;2023-01-29T07:49:51;34.63;;;15.77;;
48823;SDS011;34640;53.590;10.054;2023-01-29T07:52:25;33.97;;;16.50;;
48823;SDS011;34640;53.590;10.054;2023-01-29T07:54:58;29.88;;;14.63;;
48823;SDS011;34640;53.590;10.054;2023-01-29T07:57:32;33.97;;;15.55;;
48823;SDS011;34640;53.590;10.054;2023-01-29T08:00:08;31.73;;;15.40;;
48823;SDS011;34640;53.590;10.054;2023-01-29T08:02:44;32.65;;;15.77;;
48823;SDS011;34640;53.590;10.054;2023-01-29T08:05:17;32.60;;;16.08;;
48823;SDS011;34640;53.590;10.054;2023-01-29T08:07:52;34.85;;;16.98;;
48823;SDS011;34640;53.590;10.054;2023-01-29T08:10:38;33.08;;;16.58;;
48823;SDS011;34640;53.590;10.054;2023-01-29T08:13:12;33.45;;;16.55;;
48823;SDS011;34640;53.590;10.054;2023-01-29T08:15:48;36.90;;;18.20;;
48823;SDS011;34640;53.590;10.054;2023-01-29T08:18:22;35.90;;;16.77;;
48823;SDS011;34640;53.590;10.054;2023-01-29T08:20:57;34.50;;;17.65;;
48823;SDS011;34640;53.590;10.054;2023-01-29T08:23:33;30.90;;;17.38;;
48823;SDS011;34640;53.590;10.054;2023-01-29T08:26:07;36.35;;;17.15;;
48823;SDS011;34640;53.590;10.054;2023-01-29T08:28:40;40.20;;;18.20;;
48823;SDS011;34640;53.590;10.054;2023-01-29T08:31:16;37.13;;;18.48;;
48823;SDS011;34640;53.590;10.054;2023-01-29T08:33:52;38.72;;;19.48;;
48823;SDS011;34640;53.590;10.054;2023-01-29T08:36:26;38.03;;;20.63;;
48823;SDS011;34640;53.590;10.054;2023-01-29T08:39:00;41.22;;;20.95;;
48823;SDS011;34640;53.590;10.054;2023-01-29T08:41:34;47.50;;;20.90;;
48823;SDS011;34640;53.590;10.054;2023-01-29T08:44:08;41.10;;;20.60;;
48823;SDS011;34640;53.590;10.054;2023-01-29T08:46:43;35.78;;;19.58;;
48823;SDS011;34640;53.590;10.054;2023-01-29T08:49:17;41.92;;;21.70;;
48823;SDS011;34640;53.590;10.054;2023-01-29T08:51:51;43.17;;;21.50;;
48823;SDS011;34640;53.590;10.054;2023-01-29T08:54:25;40.63;;;20.85;;
48823;SDS011;34640;53.590;10.054;2023-01-29T08:57:01;48.90;;;24.52;;
48823;SDS011;34640;53.590;10.054;2023-01-29T08:59:35;49.22;;;24.75;;
48823;SDS011;34640;53.590;10.054;2023-01-29T09:02:10;51.33;;;24.70;;
48823;SDS011;34640;53.590;10.054;2023-01-29T09:04:44;52.92;;;24.33;;
48823;SDS011;34640;53.590;10.054;2023-01-29T09:07:18;52.05;;;24.42;;
48823;SDS011;34640;53.590;10.054;2023-01-29T09:09:53;54.00;;;26.20;;
48823;SDS011;34640;53.590;10.054;2023-01-29T09:12:27;55.63;;;26.30;;
48823;SDS011;34640;53.590;10.054;2023-01-29T09:15:01;59.95;;;29.40;;
48823;SDS011;34640;53.590;10.054;2023-01-29T09:17:36;54.35;;;26.48;;
48823;SDS011;34640;53.590;10.054;2023-01-29T09:20:10;55.30;;;28.02;;
48823;SDS011;34640;53.590;10.054;2023-01-29T09:22:44;59.10;;;28.88;;
48823;SDS011;34640;53.590;10.054;2023-01-29T09:25:18;53.95;;;25.90;;
48823;SDS011;34640;53.590;10.054;2023-01-29T09:27:52;55.10;;;27.55;;
48823;SDS011;34640;53.590;10.054;2023-01-29T09:30:26;52.13;;;25.35;;
48823;SDS011;34640;53.590;10.054;2023-01-29T09:33:01;56.17;;;28.40;;
48823;SDS011;34640;53.590;10.054;2023-01-29T09:35:38;59.97;;;28.58;;
48823;SDS011;34640;53.590;10.054;2023-01-29T09:38:13;56.88;;;29.40;;
48823;SDS011;34640;53.590;10.054;2023-01-29T09:40:48;56.00;;;28.13;;
48823;SDS011;34640;53.590;10.054;2023-01-29T09:43:30;54.67;;;28.80;;
48823;SDS011;34640;53.590;10.054;2023-01-29T09:46:15;54.45;;;27.73;;
48823;SDS011;34640;53.590;10.054;2023-01-29T09:48:56;54.83;;;28.60;;
48823;SDS011;34640;53.590;10.054;2023-01-29T09:51:37;65.30;;;28.65;;
48823;SDS011;34640;53.590;10.054;2023-01-29T09:54:15;60.03;;;29.17;;
48823;SDS011;34640;53.590;10.054;2023-01-29T09:56:54;58.15;;;29.33;;
48823;SDS011;34640;53.590;10.054;2023-01-29T09:59:29;57.05;;;26.88;;
48823;SDS011;34640;53.590;10.054;2023-01-29T10:02:06;58.20;;;29.17;;
48823;SDS011;34640;53.590;10.054;2023-01-29T10:04:57;60.05;;;29.30;;
48823;SDS011;34640;53.590;10.054;2023-01-29T10:07:52;52.95;;;27.15;;
48823;SDS011;34640;53.590;10.054;2023-01-29T10:10:47;65.35;;;30.05;;
48823;SDS011;34640;53.590;10.054;2023-01-29T10:13:26;63.28;;;29.73;;
48823;SDS011;34640;53.590;10.054;2023-01-29T10:16:13;59.47;;;29.38;;
48823;SDS011;34640;53.590;10.054;2023-01-29T10:18:59;63.17;;;29.83;;
48823;SDS011;34640;53.590;10.054;2023-01-29T10:21:54;55.30;;;29.33;;
48823;SDS011;34640;53.590;10.054;2023-01-29T10:24:44;65.35;;;32.42;;
48823;SDS011;34640;53.590;10.054;2023-01-29T10:27:25;66.15;;;32.30;;
48823;SDS011;34640;53.590;10.054;2023-01-29T10:30:06;67.65;;;33.35;;
48823;SDS011;34640;53.590;10.054;2023-01-29T10:32:42;67.97;;;31.60;;
48823;SDS011;34640;53.590;10.054;2023-01-29T10:35:21;68.47;;;32.92;;
48823;SDS011;34640;53.590;10.054;2023-01-29T10:38:01;68.72;;;33.05;;
48823;SDS011;34640;53.590;10.054;2023-01-29T10:40:49;72.18;;;33.72;;
48823;SDS011;34640;53.590;10.054;2023-01-29T10:43:33;63.83;;;31.58;;
48823;SDS011;34640;53.590;10.054;2023-01-29T10:46:13;68.50;;;33.70;;
48823;SDS011;34640;53.590;10.054;2023-01-29T10:48:58;64.22;;;32.08;;
48823;SDS011;34640;53.590;10.054;2023-01-29T10:51:45;57.40;;;30.35;;
48823;SDS011;34640;53.590;10.054;2023-01-29T10:54:34;61.05;;;30.52;;
48823;SDS011;34640;53.590;10.054;2023-01-29T10:57:21;60.67;;;31.23;;
48823;SDS011;34640;53.590;10.054;2023-01-29T11:00:01;63.38;;;30.92;;
48823;SDS011;34640;53.590;10.054;2023-01-29T11:02:45;53.70;;;29.00;;
48823;SDS011;34640;53.590;10.054;2023-01-29T11:05:24;57.13;;;29.83;;
48823;SDS011;34640;53.590;10.054;2023-01-29T11:08:04;57.38;;;30.15;;
48823;SDS011;34640;53.590;10.054;2023-01-29T11:13:19;62.08;;;29.55;;
48823;SDS011;34640;53.590;10.054;2023-01-29T11:15:58;52.83;;;27.20;;
48823;SDS011;34640;53.590;10.054;2023-01-29T11:18:47;51.90;;;26.40;;
48823;SDS011;34640;53.590;10.054;2023-01-29T11:21:22;47.05;;;26.35;;
48823;SDS011;34640;53.590;10.054;2023-01-29T11:24:06;50.90;;;26.57;;
48823;SDS011;34640;53.590;10.054;2023-01-29T11:26:49;50.17;;;26.35;;
48823;SDS011;34640;53.590;10.054;2023-01-29T11:29:28;51.60;;;26.55;;
48823;SDS011;34640;53.590;10.054;2023-01-29T11:32:06;50.53;;;26.27;;
48823;SDS011;34640;53.590;10.054;2023-01-29T11:34:58;46.83;;;26.13;;
48823;SDS011;34640;53.590;10.054;2023-01-29T11:37:34;48.97;;;26.90;;
48823;SDS011;34640;53.590;10.054;2023-01-29T11:40:31;47.25;;;25.80;;
48823;SDS011;34640;53.590;10.054;2023-01-29T11:43:16;46.33;;;26.25;;
48823;SDS011;34640;53.590;10.054;2023-01-29T11:45:55;49.60;;;25.45;;
48823;SDS011;34640;53.590;10.054;2023-01-29T11:48:32;44.65;;;23.70;;
48823;SDS011;34640;53.590;10.054;2023-01-29T11:51:19;46.90;;;24.98;;
48823;SDS011;34640;53.590;10.054;2023-01-29T11:53:54;46.00;;;24.48;;
48823;SDS011;34640;53.590;10.054;2023-01-29T11:56:31;47.05;;;24.48;;
48823;SDS011;34640;53.590;10.054;2023-01-29T11:59:28;44.40;;;24.38;;
48823;SDS011;34640;53.590;10.054;2023-01-29T12:02:17;45.17;;;23.02;;
48823;SDS011;34640;53.590;10.054;2023-01-29T12:05:00;44.35;;;22.95;;
48823;SDS011;34640;53.590;10.054;2023-01-29T12:07:38;50.72;;;24.58;;
48823;SDS011;34640;53.590;10.054;2023-01-29T12:10:30;46.95;;;23.48;;
48823;SDS011;34640;53.590;10.054;2023-01-29T12:13:14;45.88;;;23.77;;
48823;SDS011;34640;53.590;10.054;2023-01-29T12:16:07;51.08;;;25.73;;
48823;SDS011;34640;53.590;10.054;2023-01-29T12:18:48;51.75;;;26.30;;
48823;SDS011;34640;53.590;10.054;2023-01-29T12:21:28;48.55;;;23.42;;
48823;SDS011;34640;53.590;10.054;2023-01-29T12:24:10;49.20;;;23.73;;
48823;SDS011;34640;53.590;10.054;2023-01-29T12:26:52;47.42;;;24.75;;
48823;SDS011;34640;53.590;10.054;2023-01-29T12:32:13;48.80;;;23.65;;
48823;SDS011;34640;53.590;10.054;2023-01-29T12:35:00;44.65;;;23.65;;
48823;SDS011;34640;53.590;10.054;2023-01-29T12:37:39;43.47;;;22.80;;
48823;SDS011;34640;53.590;10.054;2023-01-29T12:40:21;51.85;;;24.50;;
48823;SDS011;34640;53.590;10.054;2023-01-29T12:43:00;46.80;;;24.42;;
48823;SDS011;34640;53.590;10.054;2023-01-29T12:45:39;46.35;;;24.92;;
48823;SDS011;34640;53.590;10.054;2023-01-29T12:48:18;48.45;;;24.67;;
48823;SDS011;34640;53.590;10.054;2023-01-29T12:50:58;52.03;;;25.60;;
48823;SDS011;34640;53.590;10.054;2023-01-29T12:53:40;51.20;;;26.70;;
48823;SDS011;34640;53.590;10.054;2023-01-29T12:56:22;50.88;;;25.23;;
48823;SDS011;34640;53.590;10.054;2023-01-29T12:59:03;52.03;;;27.80;;
48823;SDS011;34640;53.590;10.054;2023-01-29T13:01:47;51.20;;;29.33;;
48823;SDS011;34640;53.590;10.054;2023-01-29T13:04:29;48.63;;;25.58;;
48823;SDS011;34640;53.590;10.054;2023-01-29T13:07:11;45.33;;;24.85;;
48823;SDS011;34640;53.590;10.054;2023-01-29T13:09:48;45.03;;;23.77;;
48823;SDS011;34640;53.590;10.054;2023-01-29T13:12:25;47.90;;;25.30;;
48823;SDS011;34640;53.590;10.054;2023-01-29T13:15:00;46.85;;;26.13;;
48823;SDS011;34640;53.590;10.054;2023-01-29T13:17:39;44.92;;;23.10;;
48823;SDS011;34640;53.590;10.054;2023-01-29T13:20:18;45.13;;;25.20;;
48823;SDS011;34640;53.590;10.054;2023-01-29T13:22:57;42.50;;;23.83;;
48823;SDS011;34640;53.590;10.054;2023-01-29T13:25:35;46.35;;;24.73;;
48823;SDS011;34640;53.590;10.054;2023-01-29T13:28:16;45.78;;;23.58;;
48823;SDS011;34640;53.590;10.054;2023-01-29T13:33:50;45.45;;;22.52;;
48823;SDS011;34640;53.590;10.054;2023-01-29T13:36:28;44.80;;;22.70;;
48823;SDS011;34640;53.590;10.054;2023-01-29T13:39:04;42.25;;;21.88;;
48823;SDS011;34640;53.590;10.054;2023-01-29T13:41:40;42.08;;;22.65;;
48823;SDS011;34640;53.590;10.054;2023-01-29T13:44:17;44.67;;;23.45;;
48823;SDS011;34640;53.590;10.054;2023-01-29T13:46:55;46.97;;;25.15;;
48823;SDS011;34640;53.590;10.054;2023-01-29T13:49:34;42.25;;;22.95;;
48823;SDS011;34640;53.590;10.054;2023-01-29T13:52:23;38.67;;;22.05;;
48823;SDS011;34640;53.590;10.054;2023-01-29T13:55:04;48.97;;;22.92;;
48823;SDS011;34640;53.590;10.054;2023-01-29T13:57:52;48.70;;;24.30;;
48823;SDS011;34640;53.590;10.054;2023-01-29T14:06:45;41.85;;;22.85;;
48823;SDS011;34640;53.590;10.054;2023-01-29T14:12:42;48.53;;;25.13;;
48823;SDS011;34640;53.590;10.054;2023-01-29T14:15:21;44.40;;;23.92;;
48823;SDS011;34640;53.590;10.054;2023-01-29T14:18:04;45.67;;;23.02;;
48823;SDS011;34640;53.590;10.054;2023-01-29T14:20:54;44.20;;;24.50;;
48823;SDS011;34640;53.590;10.054;2023-01-29T14:23:38;47.35;;;25.20;;
48823;SDS011;34640;53.590;10.054;2023-01-29T14:26:29;47.47;;;26.00;;
48823;SDS011;34640;53.590;10.054;2023-01-29T14:29:14;44.47;;;22.13;;
48823;SDS011;34640;53.590;10.054;2023-01-29T14:32:08;50.17;;;27.00;;
48823;SDS011;34640;53.590;10.054;2023-01-29T14:34:47;47.58;;;24.95;;
48823;SDS011;34640;53.590;10.054;2023-01-29T14:37:24;51.88;;;24.35;;
48823;SDS011;34640;53.590;10.054;2023-01-29T14:40:12;52.20;;;26.80;;
48823;SDS011;34640;53.590;10.054;2023-01-29T14:42:54;43.85;;;24.17;;
48823;SDS011;34640;53.590;10.054;2023-01-29T14:45:33;47.28;;;25.05;;
48823;SDS011;34640;53.590;10.054;2023-01-29T14:48:17;49.90;;;26.77;;
48823;SDS011;34640;53.590;10.054;2023-01-29T14:53:44;47.30;;;23.92;;
48823;SDS011;34640;53.590;10.054;2023-01-29T14:56:26;45.67;;;23.15;;
48823;SDS011;34640;53.590;10.054;2023-01-29T14:59:10;45.53;;;25.00;;
48823;SDS011;34640;53.590;10.054;2023-01-29T15:01:51;47.40;;;25.75;;
48823;SDS011;34640;53.590;10.054;2023-01-29T15:04:27;47.33;;;24.48;;
48823;SDS011;34640;53.590;10.054;2023-01-29T15:07:06;46.47;;;24.35;;
48823;SDS011;34640;53.590;10.054;2023-01-29T15:09:51;46.33;;;25.58;;
48823;SDS011;34640;53.590;10.054;2023-01-29T15:12:48;48.67;;;25.05;;
48823;SDS011;34640;53.590;10.054;2023-01-29T15:15:28;47.17;;;24.20;;
48823;SDS011;34640;53.590;10.054;2023-01-29T15:18:11;48.85;;;25.40;;
48823;SDS011;34640;53.590;10.054;2023-01-29T15:20:47;51.13;;;25.52;;
48823;SDS011;34640;53.590;10.054;2023-01-29T15:23:24;49.13;;;25.33;;
48823;SDS011;34640;53.590;10.054;2023-01-29T15:26:00;47.40;;;26.70;;
48823;SDS011;34640;53.590;10.054;2023-01-29T15:28:35;51.70;;;26.58;;
48823;SDS011;34640;53.590;10.054;2023-01-29T15:31:11;57.65;;;26.20;;
48823;SDS011;34640;53.590;10.054;2023-01-29T15:33:50;58.80;;;27.08;;
48823;SDS011;34640;53.590;10.054;2023-01-29T15:36:27;54.75;;;29.17;;
48823;SDS011;34640;53.590;10.054;2023-01-29T15:39:06;61.58;;;29.90;;